createdAt,value
2018-09-27T07:34:36.500Z,979.22
2018-09-27T07:35:36.420Z,979.16
2018-09-27T07:36:19.211Z,979.21
2018-09-27T07:37:19.129Z,979.17
2018-09-27T07:38:19.081Z,979.21
2018-09-27T07:39:19.026Z,979.20
2018-09-27T07:41:52.223Z,979.18
2018-09-27T07:42:52.363Z,979.19
2018-09-27T07:43:52.223Z,979.17
2018-09-27T07:44:51.604Z,979.17
2018-09-27T07:45:51.569Z,979.22
2018-09-27T07:46:51.573Z,979.21
2018-09-27T07:51:36.604Z,979.27
2018-09-27T07:52:30.161Z,979.27
2018-09-27T07:53:30.105Z,979.25
2018-09-27T07:54:30.254Z,979.22
2018-09-27T07:55:30.039Z,979.25
2018-09-27T07:56:30.185Z,979.22
2018-09-27T07:57:30.043Z,979.27
2018-09-27T07:58:30.021Z,979.26
2018-09-27T07:59:53.445Z,979.30
2018-09-27T08:00:53.418Z,979.31
2018-09-27T08:01:53.515Z,979.31
2018-09-27T08:02:53.625Z,979.28
2018-09-27T08:03:53.432Z,979.30
2018-09-27T08:04:53.420Z,979.29
2018-09-27T08:05:53.398Z,979.28
2018-09-27T08:06:53.414Z,979.26
2018-09-27T08:07:34.194Z,979.32
2018-09-27T08:08:50.916Z,979.31
2018-09-27T08:09:50.937Z,979.33
2018-09-27T08:10:50.812Z,979.31
2018-09-27T08:11:50.782Z,979.30
2018-09-27T08:12:50.723Z,979.29
2018-09-27T08:13:50.659Z,979.33
2018-09-27T08:14:50.641Z,979.29
2018-09-27T08:15:50.621Z,979.29
2018-09-27T08:16:50.763Z,979.30
2018-09-27T08:17:50.657Z,979.28
2018-09-27T08:18:41.026Z,979.31
2018-09-27T08:19:40.923Z,979.36
2018-09-27T08:20:41.099Z,979.35
2018-09-27T08:21:40.885Z,979.29
2018-09-27T08:22:40.824Z,979.33
2018-09-27T08:23:40.835Z,979.35
2018-09-27T08:24:40.784Z,979.36
2018-09-27T08:25:40.760Z,979.31
2018-09-27T08:26:40.778Z,979.35
2018-09-27T08:27:40.712Z,979.34
2018-09-27T08:28:40.698Z,979.38
2018-09-27T08:29:40.792Z,979.35
2018-09-27T08:30:40.799Z,979.31
2018-09-27T08:31:40.707Z,979.31
2018-09-27T08:32:40.742Z,979.29
2018-09-27T08:34:01.836Z,979.29
2018-09-27T08:34:30.130Z,979.27
2018-09-27T08:35:30.080Z,979.33
2018-09-27T08:36:30.045Z,979.34
2018-09-27T08:37:30.021Z,979.30
2018-09-27T08:49:54.027Z,979.06
2018-09-27T08:50:53.981Z,979.05
2018-09-27T08:51:53.983Z,979.01
2018-09-27T08:52:53.925Z,979.04
2018-09-27T08:54:07.407Z,979.04
2018-09-27T08:55:07.353Z,979.04
2018-09-27T08:56:07.440Z,979.03
2018-09-27T08:57:07.340Z,979.03
2018-09-27T08:58:07.214Z,979.02
2018-09-27T08:59:07.177Z,979.03
2018-09-27T09:00:07.121Z,979.01
2018-09-27T09:01:07.071Z,979.04
2018-09-27T09:02:07.027Z,979.01
2018-09-27T09:03:07.009Z,979.02
2018-09-27T09:04:06.910Z,978.98
2018-09-27T09:05:06.853Z,978.98
2018-09-27T09:06:07.578Z,978.98
2018-09-27T09:07:06.759Z,978.96
2018-09-27T09:08:06.735Z,978.97
2018-09-27T09:09:06.681Z,978.93
2018-09-27T09:10:06.591Z,978.95
2018-09-27T09:11:06.545Z,978.89
2018-09-27T09:12:06.513Z,978.89
2018-09-27T09:13:06.413Z,978.90
2018-09-27T09:14:06.408Z,978.86
2018-09-27T09:15:06.318Z,978.82
2018-09-27T09:50:05.578Z,978.43
2018-09-27T09:51:05.402Z,978.41
2018-09-27T09:52:05.345Z,978.42
2018-09-27T09:53:05.276Z,978.43
2018-09-27T09:54:05.203Z,978.41
2018-09-27T09:55:05.113Z,978.41
2018-09-27T09:56:29.186Z,978.75
2018-09-27T09:57:29.145Z,978.74
2018-09-27T09:58:29.135Z,978.77
2018-09-27T09:59:29.121Z,978.71
2018-09-27T10:00:29.159Z,978.69
2018-09-27T10:01:29.097Z,978.63
2018-09-27T10:02:29.148Z,978.69
2018-09-27T10:03:29.079Z,978.67
2018-09-27T10:04:29.067Z,978.61
2018-09-27T10:05:29.069Z,978.61
2018-09-27T10:06:29.079Z,978.64
2018-09-27T10:07:29.037Z,978.63
2018-09-27T10:08:29.038Z,978.63
2018-09-27T10:09:29.018Z,978.62
2018-09-27T10:10:29.007Z,978.59
2018-09-27T10:11:29.024Z,978.60
2018-09-27T10:12:29.025Z,978.52
2018-09-27T10:13:28.973Z,978.49
2018-09-27T10:14:28.963Z,978.50
2018-09-27T10:15:28.962Z,978.45
2018-09-27T10:16:28.940Z,978.44
2018-09-27T10:17:28.943Z,978.47
2018-09-27T10:18:28.949Z,978.48
2018-09-27T10:19:28.913Z,978.44
2018-09-27T10:20:28.914Z,978.45
2018-09-27T10:21:28.918Z,978.44
2018-09-27T10:22:28.879Z,978.37
2018-09-27T10:23:28.900Z,978.45
2018-09-27T10:24:28.865Z,978.40
2018-09-27T10:25:28.848Z,978.39
2018-09-27T10:26:28.835Z,978.38
2018-09-27T10:27:28.842Z,978.33
2018-09-27T10:28:28.836Z,978.36
2018-09-27T10:29:28.806Z,978.27
2018-09-27T10:30:28.795Z,978.32
2018-09-27T10:31:28.785Z,978.33
2018-09-27T10:32:28.781Z,978.29
2018-09-27T10:33:28.797Z,978.33
2018-09-27T10:34:28.804Z,978.30
2018-09-27T10:35:28.755Z,978.27
2018-09-27T10:36:28.738Z,978.24
2018-09-27T10:37:28.730Z,978.26
2018-09-27T10:38:28.749Z,978.25
2018-09-27T10:39:28.727Z,978.24
2018-09-27T10:40:28.703Z,978.21
2018-09-27T10:41:28.684Z,978.21
2018-09-27T10:42:28.674Z,978.19
2018-09-27T10:43:28.703Z,978.19
2018-09-27T10:44:28.658Z,978.17
2018-09-27T10:45:28.650Z,978.12
2018-09-27T10:46:28.637Z,978.10
2018-09-27T10:47:28.647Z,978.11
2018-09-27T10:48:28.657Z,978.14
2018-09-27T10:49:28.618Z,978.09
2018-09-27T10:50:28.593Z,978.12
2018-09-27T10:51:28.742Z,978.11
2018-09-27T10:52:28.579Z,978.08
2018-09-27T10:53:28.630Z,978.08
2018-09-27T10:54:28.580Z,978.05
2018-09-27T10:55:28.544Z,978.07
2018-09-27T10:56:28.533Z,978.08
2018-09-27T10:57:28.525Z,978.08
2018-09-27T10:58:28.518Z,978.06
2018-09-27T10:59:28.558Z,978.03
2018-09-27T11:00:28.496Z,978.01
2018-09-27T11:01:28.484Z,977.94
2018-09-27T11:02:28.473Z,977.95
2018-09-27T11:03:28.463Z,977.95
2018-09-27T11:04:28.480Z,977.95
2018-09-27T11:05:28.489Z,977.94
2018-09-27T11:06:28.430Z,977.93
2018-09-27T11:07:28.424Z,977.93
2018-09-27T11:08:28.413Z,977.92
2018-09-27T11:09:28.455Z,977.95
2018-09-27T11:10:28.397Z,977.88
2018-09-27T11:11:28.417Z,977.89
2018-09-27T11:12:28.370Z,977.88
2018-09-27T11:13:28.372Z,977.89
2018-09-27T11:14:28.350Z,977.82
2018-09-27T11:15:28.365Z,977.83
2018-09-27T11:16:28.370Z,977.84
2018-09-27T11:17:28.339Z,977.82
2018-09-27T11:18:28.324Z,977.81
2018-09-27T11:19:28.324Z,977.82
2018-09-27T11:20:28.315Z,977.83
2018-09-27T11:21:28.282Z,977.85
2018-09-27T11:22:28.278Z,977.84
2018-09-27T11:23:28.268Z,977.80
2018-09-27T11:24:28.249Z,977.74
2018-09-27T11:25:28.269Z,977.70
2018-09-27T11:26:28.236Z,977.73
2018-09-27T11:27:28.275Z,977.71
2018-09-27T11:28:28.210Z,977.67
2018-09-27T11:29:28.227Z,977.66
2018-09-27T11:30:28.194Z,977.67
2018-09-27T11:31:28.191Z,977.65
2018-09-27T11:32:28.170Z,977.64
2018-09-27T11:33:28.171Z,977.63
2018-09-27T11:34:28.184Z,977.61
2018-09-27T11:35:28.143Z,977.62
2018-09-27T11:36:28.161Z,977.57
2018-09-27T11:37:28.126Z,977.59
2018-09-27T11:38:28.168Z,977.50
2018-09-27T11:39:28.138Z,977.49
2018-09-27T11:40:28.099Z,977.50
2018-09-27T11:41:28.083Z,977.47
2018-09-27T11:42:28.131Z,977.38
2018-09-27T11:43:28.062Z,977.42
2018-09-27T11:44:28.056Z,977.32
2018-09-27T11:45:28.066Z,977.27
2018-09-27T11:46:28.027Z,976.97
2018-09-27T11:47:28.017Z,977.20
2018-09-27T11:48:28.007Z,976.83
2018-09-27T11:49:28.113Z,977.19
2018-09-27T11:50:28.026Z,976.93
2018-09-27T11:51:27.985Z,976.64
2018-09-27T11:52:27.976Z,976.70
2018-09-27T11:53:27.954Z,976.76
2018-09-27T11:54:27.949Z,976.75
2018-09-27T11:55:29.174Z,976.69
2018-09-27T11:56:27.923Z,976.71
2018-09-27T11:57:27.920Z,976.77
2018-09-27T11:58:27.905Z,976.78
2018-09-27T11:59:28.869Z,976.76
2018-09-27T12:00:27.974Z,976.97
2018-09-27T12:01:27.895Z,977.10
2018-09-27T12:02:27.869Z,977.15
2018-09-27T12:03:27.854Z,977.17
2018-09-27T12:04:27.839Z,977.12
2018-09-27T12:05:27.833Z,977.13
2018-09-27T12:06:27.884Z,977.11
2018-09-27T12:07:27.836Z,977.09
2018-09-27T12:08:27.828Z,977.14
2018-09-27T12:09:27.787Z,977.10
2018-09-27T12:10:27.779Z,977.12
2018-09-27T12:11:27.799Z,977.10
2018-09-27T12:12:27.787Z,977.09
2018-09-27T12:13:27.878Z,977.04
2018-09-27T12:14:27.848Z,977.02
2018-09-27T12:15:27.761Z,977.01
2018-09-27T12:16:27.724Z,976.92
2018-09-27T12:17:27.772Z,976.79
2018-09-27T12:18:27.708Z,976.75
2018-09-27T12:19:27.783Z,976.66
2018-09-27T12:20:27.678Z,976.56
2018-09-27T12:21:27.670Z,976.56
2018-09-27T12:22:27.665Z,976.49
2018-09-27T12:23:27.686Z,976.46
2018-09-27T12:24:27.658Z,976.39
2018-09-27T12:25:27.687Z,976.41
2018-09-27T12:26:27.621Z,976.40
2018-09-27T12:27:27.610Z,976.38
2018-09-27T12:28:27.620Z,976.45
2018-09-27T12:29:27.599Z,976.23
2018-09-27T12:30:27.912Z,976.28
2018-09-27T12:31:27.600Z,976.43
2018-09-27T12:32:27.581Z,976.58
2018-09-27T12:33:28.380Z,976.30
2018-09-27T12:34:27.626Z,976.26
2018-09-27T12:35:27.566Z,976.25
2018-09-27T12:36:27.543Z,976.25
2018-09-27T12:37:27.505Z,976.24
2018-09-27T12:38:27.555Z,976.20
2018-09-27T12:39:27.532Z,976.23
2018-09-27T12:40:27.511Z,976.20
2018-09-27T12:41:27.507Z,976.19
2018-09-27T12:42:27.512Z,976.16
2018-09-27T12:43:27.443Z,976.21
2018-09-27T12:44:27.440Z,976.23
2018-09-27T12:45:27.469Z,976.19
2018-09-27T12:46:27.511Z,976.12
2018-09-27T12:47:27.419Z,976.13
2018-09-27T12:48:27.451Z,976.12
2018-09-27T12:49:27.388Z,976.10
2018-09-27T12:50:27.453Z,975.99
2018-09-27T12:51:27.382Z,975.88
2018-09-27T12:52:27.567Z,976.49
2018-09-27T12:53:27.344Z,976.58
2018-09-27T12:54:27.340Z,976.60
2018-09-27T12:55:27.360Z,976.67
2018-09-27T12:56:27.317Z,976.68
2018-09-27T12:57:27.309Z,976.68
2018-09-27T12:58:27.309Z,976.72
2018-09-27T12:59:27.284Z,976.72
2018-09-27T13:00:27.297Z,976.77
2018-09-27T13:01:27.280Z,976.74
2018-09-27T13:02:27.343Z,976.74
2018-09-27T13:03:27.253Z,976.67
2018-09-27T13:04:27.250Z,976.65
2018-09-27T13:05:27.330Z,976.63
2018-09-27T13:06:27.226Z,976.63
2018-09-27T13:07:27.230Z,976.51
2018-09-27T13:08:27.246Z,976.36
2018-09-27T13:09:27.328Z,976.30
2018-09-27T13:10:27.182Z,976.20
2018-09-27T13:11:27.196Z,976.13
2018-09-27T13:12:27.296Z,976.06
2018-09-27T13:13:27.287Z,976.02
2018-09-27T13:14:27.160Z,976.00
2018-09-27T13:15:27.130Z,975.93
2018-09-27T13:16:27.144Z,975.88
2018-09-27T13:17:27.152Z,975.83
2018-09-27T13:18:27.105Z,975.61
2018-09-27T13:19:27.141Z,975.77
2018-09-27T13:20:27.151Z,975.70
2018-09-27T13:21:27.159Z,975.72
2018-09-27T13:22:27.089Z,975.76
2018-09-27T13:23:27.076Z,975.85
2018-09-27T13:24:27.070Z,975.91
2018-09-27T13:25:27.040Z,975.98
2018-09-27T13:26:27.138Z,976.01
2018-09-27T13:27:27.018Z,976.07
2018-09-27T13:28:27.099Z,976.07
2018-09-27T13:29:27.001Z,976.05
2018-09-27T13:30:26.984Z,976.05
2018-09-27T13:31:27.032Z,976.10
2018-09-27T13:32:26.969Z,976.09
2018-09-27T13:33:26.957Z,976.05
2018-09-27T13:34:26.949Z,976.00
2018-09-27T13:35:26.943Z,975.94
2018-09-27T13:36:26.983Z,975.92
2018-09-27T13:37:26.925Z,975.92
2018-09-27T13:38:26.932Z,975.97
2018-09-27T13:39:26.899Z,975.86
2018-09-27T13:40:26.897Z,975.74
2018-09-27T13:41:26.881Z,975.63
2018-09-27T13:42:26.873Z,975.56
2018-09-27T13:43:26.905Z,975.52
2018-09-27T13:44:26.863Z,975.50
2018-09-27T13:45:26.846Z,975.48
2018-09-27T13:46:26.894Z,975.46
2018-09-27T13:47:26.823Z,975.41
2018-09-27T13:48:26.843Z,975.44
2018-09-27T13:49:26.808Z,975.40
2018-09-27T13:50:26.797Z,975.36
2018-09-27T13:51:26.794Z,975.36
2018-09-27T13:52:26.774Z,975.31
2018-09-27T13:53:26.766Z,975.31
2018-09-27T13:54:26.774Z,975.30
2018-09-27T13:55:26.752Z,975.30
2018-09-27T13:56:26.733Z,975.28
2018-09-27T13:57:26.804Z,975.24
2018-09-27T13:58:26.718Z,975.24
2018-09-27T13:59:26.728Z,975.18
2018-09-27T14:00:26.697Z,975.21
2018-09-27T14:01:26.684Z,975.20
2018-09-27T14:02:26.674Z,975.18
2018-09-27T14:03:26.677Z,975.15
2018-09-27T14:04:26.683Z,975.10
2018-09-27T14:05:26.682Z,975.09
2018-09-27T14:06:26.641Z,974.99
2018-09-27T14:07:26.630Z,975.05
2018-09-27T14:08:26.629Z,975.01
2018-09-27T14:09:26.646Z,975.02
2018-09-27T14:10:26.609Z,975.03
2018-09-27T14:11:26.583Z,975.01
2018-09-27T14:12:26.579Z,974.99
2018-09-27T14:13:26.568Z,974.96
2018-09-27T14:14:26.574Z,974.93
2018-09-27T14:15:26.569Z,974.93
2018-09-27T14:16:26.534Z,974.92
2018-09-27T14:17:26.532Z,974.93
2018-09-27T14:18:26.517Z,974.85
2018-09-27T14:19:26.507Z,974.79
2018-09-27T14:20:26.536Z,974.81
2018-09-27T14:21:26.487Z,974.73
2018-09-27T14:22:26.478Z,974.72
2018-09-27T14:23:26.470Z,974.71
2018-09-27T14:24:26.461Z,974.65
2018-09-27T14:25:26.487Z,974.65
2018-09-27T14:26:26.449Z,974.57
2018-09-27T14:27:26.423Z,974.64
2018-09-27T14:28:26.416Z,974.62
2018-09-27T14:29:26.409Z,974.61
2018-09-27T14:30:26.389Z,974.56
2018-09-27T14:31:26.429Z,974.55
2018-09-27T14:32:26.371Z,974.52
2018-09-27T14:33:26.362Z,974.48
2018-09-27T14:34:26.406Z,974.52
2018-09-27T14:35:26.389Z,974.54
2018-09-27T14:36:26.357Z,974.47
2018-09-27T14:37:26.330Z,974.46
2018-09-27T14:38:26.330Z,974.45
2018-09-27T14:39:26.304Z,974.47
2018-09-27T14:40:26.295Z,974.41
2018-09-27T14:41:26.321Z,974.41
2018-09-27T14:42:26.285Z,974.42
2018-09-27T14:43:26.260Z,974.40
2018-09-27T14:44:26.257Z,974.41
2018-09-27T14:45:26.245Z,974.36
2018-09-27T14:46:26.265Z,974.41
2018-09-27T14:47:26.302Z,974.36
2018-09-27T14:48:26.218Z,974.38
2018-09-27T14:49:26.218Z,974.37
2018-09-27T14:50:26.198Z,974.34
2018-09-27T14:51:26.189Z,974.36
2018-09-27T14:52:26.229Z,974.35
2018-09-27T14:53:26.180Z,974.36
2018-09-27T14:54:26.148Z,974.29
2018-09-27T14:55:26.158Z,974.29
2018-09-27T14:56:26.135Z,974.25
2018-09-27T14:57:26.151Z,974.28
2018-09-27T14:58:26.159Z,974.25
2018-09-27T14:59:26.099Z,974.24
2018-09-27T15:00:26.106Z,974.22
2018-09-27T15:01:26.085Z,974.21
2018-09-27T15:02:26.174Z,974.20
2018-09-27T15:03:26.091Z,974.25
2018-09-27T15:04:26.101Z,974.21
2018-09-27T15:05:26.035Z,974.21
2018-09-27T15:06:26.052Z,974.20
2018-09-27T15:07:26.021Z,974.18
2018-09-27T15:08:26.036Z,974.22
2018-09-27T15:09:26.090Z,974.27
2018-09-27T15:10:26.112Z,974.20
2018-09-27T15:11:25.978Z,974.21
2018-09-27T15:12:26.013Z,974.16
2018-09-27T15:13:25.989Z,974.10
2018-09-27T15:14:25.998Z,974.08
2018-09-27T15:15:25.940Z,974.05
2018-09-27T15:16:26.024Z,974.04
2018-09-27T15:17:25.923Z,973.97
2018-09-27T15:18:25.911Z,974.03
2018-09-27T15:19:25.941Z,974.02
2018-09-27T15:20:25.886Z,974.01
2018-09-27T15:21:25.872Z,974.02
2018-09-27T15:22:25.919Z,973.99
2018-09-27T15:23:25.864Z,973.96
2018-09-27T15:24:25.888Z,973.92
2018-09-27T15:25:25.841Z,973.90
2018-09-27T15:26:25.854Z,973.91
2018-09-27T15:27:25.836Z,973.88
2018-09-27T15:28:25.819Z,973.86
2018-09-27T15:29:25.860Z,973.85
2018-09-27T15:30:25.866Z,973.86
2018-09-27T15:31:25.804Z,973.84
2018-09-27T15:32:25.786Z,973.82
2018-09-27T15:33:25.753Z,973.84
2018-09-27T15:34:25.818Z,973.81
2018-09-27T15:35:25.802Z,973.83
2018-09-27T15:36:25.745Z,973.80
2018-09-27T15:37:25.713Z,973.80
2018-09-27T15:38:25.719Z,973.75
2018-09-27T15:39:25.696Z,973.71
2018-09-27T15:40:25.707Z,973.72
2018-09-27T15:41:25.671Z,973.70
2018-09-27T15:42:25.667Z,973.66
2018-09-27T15:43:25.654Z,973.64
2018-09-27T15:44:25.641Z,973.63
2018-09-27T15:45:25.673Z,973.53
2018-09-27T15:46:25.619Z,973.56
2018-09-27T15:47:25.619Z,973.60
2018-09-27T15:48:25.599Z,973.53
2018-09-27T15:49:25.605Z,973.54
2018-09-27T15:50:25.576Z,973.51
2018-09-27T15:51:25.656Z,973.52
2018-09-27T15:52:25.563Z,973.51
2018-09-27T15:53:25.545Z,973.48
2018-09-27T15:54:25.534Z,973.50
2018-09-27T15:55:25.537Z,973.47
2018-09-27T15:56:25.556Z,973.50
2018-09-27T15:57:25.506Z,973.47
2018-09-27T15:58:25.531Z,973.45
2018-09-27T15:59:25.496Z,973.50
2018-09-27T16:00:25.482Z,973.54
2018-09-27T16:01:25.508Z,973.52
2018-09-27T16:02:25.451Z,973.55
2018-09-27T16:03:25.501Z,973.55
2018-09-27T16:04:25.455Z,973.50
2018-09-27T16:05:25.428Z,973.51
2018-09-27T16:06:25.476Z,973.45
2018-09-27T16:07:25.420Z,973.44
2018-09-27T16:08:25.393Z,973.43
2018-09-27T16:09:25.385Z,973.40
2018-09-27T16:10:25.372Z,973.37
2018-09-27T16:11:25.379Z,973.37
2018-09-27T16:12:25.375Z,973.33
2018-09-27T16:13:25.342Z,973.39
2018-09-27T16:14:25.328Z,973.38
2018-09-27T16:15:25.314Z,973.41
2018-09-27T16:16:25.307Z,973.37
2018-09-27T16:17:25.331Z,973.35
2018-09-27T16:18:25.294Z,973.33
2018-09-27T16:19:25.269Z,973.35
2018-09-27T16:20:25.257Z,973.29
2018-09-27T16:21:25.259Z,973.30
2018-09-27T16:22:25.273Z,973.30
2018-09-27T16:23:25.227Z,973.27
2018-09-27T16:24:25.229Z,973.25
2018-09-27T16:25:25.214Z,973.27
2018-09-27T16:26:25.223Z,973.21
2018-09-27T16:27:25.215Z,973.21
2018-09-27T16:28:25.189Z,973.21
2018-09-27T16:29:25.211Z,973.23
2018-09-27T16:30:25.149Z,973.19
2018-09-27T16:31:25.141Z,973.20
2018-09-27T16:32:25.128Z,973.19
2018-09-27T16:33:25.170Z,973.19
2018-09-27T16:34:25.113Z,973.14
2018-09-27T16:35:25.099Z,973.17
2018-09-27T16:36:25.087Z,973.17
2018-09-27T16:37:25.084Z,973.16
2018-09-27T16:38:25.097Z,973.17
2018-09-27T16:39:25.057Z,973.14
2018-09-27T16:40:25.086Z,973.08
2018-09-27T16:41:25.062Z,973.08
2018-09-27T16:42:25.053Z,973.08
2018-09-27T16:43:25.085Z,973.08
2018-09-27T16:44:25.004Z,973.12
2018-09-27T16:45:24.992Z,973.05
2018-09-27T16:46:24.992Z,973.07
2018-09-27T16:47:25.044Z,973.05
2018-09-27T16:48:24.965Z,973.07
2018-09-27T16:49:24.973Z,973.04
2018-09-27T16:50:24.948Z,973.01
2018-09-27T16:51:24.933Z,973.04
2018-09-27T16:52:24.927Z,972.99
2018-09-27T16:53:24.927Z,973.00
2018-09-27T16:54:24.925Z,972.96
2018-09-27T16:55:24.898Z,972.93
2018-09-27T16:56:24.874Z,972.91
2018-09-27T16:57:24.866Z,972.94
2018-09-27T16:58:24.852Z,972.88
2018-09-27T16:59:24.933Z,972.96
2018-09-27T17:00:24.832Z,972.96
2018-09-27T17:01:24.827Z,972.94
2018-09-27T17:02:24.828Z,972.95
2018-09-27T17:03:24.810Z,972.89
2018-09-27T17:04:24.796Z,972.90
2018-09-27T17:05:24.851Z,972.84
2018-09-27T17:06:24.770Z,972.84
2018-09-27T17:07:24.760Z,972.86
2018-09-27T17:08:24.753Z,972.84
2018-09-27T17:09:24.861Z,972.85
2018-09-27T17:10:24.769Z,972.83
2018-09-27T17:11:24.733Z,972.84
2018-09-27T17:12:24.708Z,972.83
2018-09-27T17:13:24.703Z,972.81
2018-09-27T17:14:24.700Z,972.81
2018-09-27T17:15:24.709Z,972.85
2018-09-27T17:16:24.701Z,972.81
2018-09-27T17:17:24.689Z,972.79
2018-09-27T17:18:24.651Z,972.81
2018-09-27T17:19:24.651Z,972.72
2018-09-27T17:20:24.653Z,972.71
2018-09-27T17:21:24.655Z,972.72
2018-09-27T17:22:24.616Z,972.70
2018-09-27T17:23:24.623Z,972.69
2018-09-27T17:24:24.626Z,972.67
2018-09-27T17:25:24.574Z,972.65
2018-09-27T17:26:24.601Z,972.65
2018-09-27T17:27:24.563Z,972.65
2018-09-27T17:28:24.544Z,972.66
2018-09-27T17:29:24.534Z,972.63
2018-09-27T17:30:24.522Z,972.61
2018-09-27T17:31:24.600Z,972.62
2018-09-27T17:32:24.511Z,972.56
2018-09-27T17:33:24.514Z,972.57
2018-09-27T17:34:24.471Z,972.61
2018-09-27T17:35:24.533Z,972.66
2018-09-27T17:36:24.451Z,972.63
2018-09-27T17:37:24.496Z,972.62
2018-09-27T17:38:24.432Z,972.65
2018-09-27T17:39:24.429Z,972.64
2018-09-27T17:40:24.488Z,972.59
2018-09-27T17:41:24.403Z,972.64
2018-09-27T17:42:24.418Z,972.63
2018-09-27T17:43:24.395Z,972.62
2018-09-27T17:44:24.365Z,972.62
2018-09-27T17:45:24.353Z,972.61
2018-09-27T17:46:24.368Z,972.60
2018-09-27T17:47:24.381Z,972.60
2018-09-27T17:48:24.333Z,972.59
2018-09-27T17:49:24.316Z,972.57
2018-09-27T17:50:24.304Z,972.56
2018-09-27T17:51:24.292Z,972.60
2018-09-27T17:52:24.280Z,972.61
2018-09-27T17:53:24.475Z,972.63
2018-09-27T17:54:24.264Z,972.63
2018-09-27T17:55:24.272Z,972.61
2018-09-27T17:56:24.233Z,972.60
2018-09-27T17:57:24.224Z,972.62
2018-09-27T17:58:24.281Z,972.63
2018-09-27T17:59:24.209Z,972.59
2018-09-27T18:00:24.205Z,972.62
2018-09-27T18:01:24.198Z,972.61
2018-09-27T18:02:24.174Z,972.56
2018-09-27T18:03:24.196Z,972.60
2018-09-27T18:04:24.150Z,972.60
2018-09-27T18:05:24.147Z,972.64
2018-09-27T18:06:24.125Z,972.62
2018-09-27T18:07:24.126Z,972.61
2018-09-27T18:08:24.109Z,972.61
2018-09-27T18:09:24.115Z,972.66
2018-09-27T18:10:24.082Z,972.64
2018-09-27T18:11:24.072Z,972.60
2018-09-27T18:12:24.068Z,972.66
2018-09-27T18:13:24.057Z,972.63
2018-09-27T18:14:24.079Z,972.63
2018-09-27T18:15:24.044Z,972.62
2018-09-27T18:16:24.022Z,972.66
2018-09-27T18:17:24.013Z,972.66
2018-09-27T18:18:24.001Z,972.64
2018-09-27T18:19:24.023Z,972.62
2018-09-27T18:20:23.979Z,972.67
2018-09-27T18:21:23.969Z,972.63
2018-09-27T18:22:23.975Z,972.65
2018-09-27T18:23:23.953Z,972.60
2018-09-27T18:24:23.975Z,972.62
2018-09-27T18:25:23.926Z,972.66
2018-09-27T18:26:23.934Z,972.61
2018-09-27T18:27:23.911Z,972.60
2018-09-27T18:28:23.892Z,972.60
2018-09-27T18:29:23.891Z,972.64
2018-09-27T18:30:23.890Z,972.57
2018-09-27T18:31:23.901Z,972.63
2018-09-27T18:32:23.852Z,972.59
2018-09-27T18:33:23.857Z,972.62
2018-09-27T18:34:23.866Z,972.55
2018-09-27T18:35:23.845Z,972.55
2018-09-27T18:36:23.809Z,972.59
2018-09-27T18:37:23.836Z,972.58
2018-09-27T18:38:23.884Z,972.60
2018-09-27T18:39:23.774Z,972.58
2018-09-27T18:40:23.794Z,972.58
2018-09-27T18:41:23.768Z,972.56
2018-09-27T18:42:23.755Z,972.60
2018-09-27T18:43:23.733Z,972.57
2018-09-27T18:44:23.729Z,972.61
2018-09-27T18:45:23.741Z,972.60
2018-09-27T18:46:23.708Z,972.59
2018-09-27T18:47:23.691Z,972.62
2018-09-27T18:48:23.736Z,972.58
2018-09-27T18:49:23.671Z,972.57
2018-09-27T18:50:23.697Z,972.60
2018-09-27T18:51:23.749Z,972.56
2018-09-27T18:52:23.646Z,972.56
2018-09-27T18:53:23.654Z,972.53
2018-09-27T18:54:23.612Z,972.54
2018-09-27T18:55:23.603Z,972.54
2018-09-27T18:56:23.618Z,972.55
2018-09-27T18:57:23.581Z,972.54
2018-09-27T18:58:23.593Z,972.60
2018-09-27T18:59:23.562Z,972.57
2018-09-27T19:00:23.570Z,972.55
2018-09-27T19:01:24.018Z,972.51
2018-09-27T19:02:23.540Z,972.55
2018-09-27T19:03:23.515Z,972.55
2018-09-27T19:04:23.505Z,972.54
2018-09-27T19:05:23.511Z,972.50
2018-09-27T19:06:23.503Z,972.51
2018-09-27T19:07:23.522Z,972.50
2018-09-27T19:08:23.519Z,972.51
2018-09-27T19:09:23.484Z,972.54
2018-09-27T19:10:23.440Z,972.49
2018-09-27T19:11:23.443Z,972.51
2018-09-27T19:12:23.463Z,972.45
2018-09-27T19:13:23.406Z,972.48
2018-09-27T19:14:23.397Z,972.46
2018-09-27T19:15:23.427Z,972.43
2018-09-27T19:16:23.420Z,972.48
2018-09-27T19:17:23.418Z,972.46
2018-09-27T19:18:23.357Z,972.48
2018-09-27T19:19:23.346Z,972.43
2018-09-27T19:20:23.357Z,972.44
2018-09-27T19:21:23.340Z,972.50
2018-09-27T19:22:23.325Z,972.48
2018-09-27T19:23:23.347Z,972.50
2018-09-27T19:24:23.306Z,972.46
2018-09-27T19:25:23.288Z,972.48
2018-09-27T19:26:23.267Z,972.48
2018-09-27T19:27:23.273Z,972.46
2018-09-27T19:28:23.278Z,972.46
2018-09-27T19:29:23.258Z,972.41
2018-09-27T19:30:23.239Z,972.47
2018-09-27T19:31:23.245Z,972.41
2018-09-27T19:32:23.208Z,972.44
2018-09-27T19:33:23.254Z,972.43
2018-09-27T19:34:23.194Z,972.42
2018-09-27T19:35:23.195Z,972.44
2018-09-27T19:36:23.172Z,972.41
2018-09-27T19:37:23.156Z,972.44
2018-09-27T19:38:23.170Z,972.39
2018-09-27T19:39:23.273Z,972.40
2018-09-27T19:40:23.134Z,972.40
2018-09-27T19:41:23.123Z,972.39
2018-09-27T19:42:23.110Z,972.43
2018-09-27T19:43:23.112Z,972.40
2018-09-27T19:44:23.119Z,972.37
2018-09-27T19:45:23.090Z,972.36
2018-09-27T19:46:23.063Z,972.33
2018-09-27T19:47:23.056Z,972.34
2018-09-27T19:48:23.039Z,972.39
2018-09-27T19:49:23.100Z,972.34
2018-09-27T19:50:23.045Z,972.36
2018-09-27T19:51:23.012Z,972.37
2018-09-27T19:52:23.079Z,972.35
2018-09-27T19:53:22.985Z,972.35
2018-09-27T19:54:22.979Z,972.31
2018-09-27T19:55:22.993Z,972.34
2018-09-27T19:56:22.950Z,972.31
2018-09-27T19:57:22.958Z,972.31
2018-09-27T19:58:23.358Z,972.34
2018-09-27T19:59:22.992Z,972.31
2018-09-27T20:00:22.948Z,972.34
2018-09-27T20:01:22.902Z,972.34
2018-09-27T20:02:22.887Z,972.33
2018-09-27T20:03:22.879Z,972.35
2018-09-27T20:04:22.879Z,972.38
2018-09-27T20:05:22.901Z,972.35
2018-09-27T20:06:22.849Z,972.35
2018-09-27T20:07:22.900Z,972.38
2018-09-27T20:08:22.825Z,972.34
2018-09-27T20:09:22.819Z,972.36
2018-09-27T20:10:22.864Z,972.36
2018-09-27T20:11:22.813Z,972.35
2018-09-27T20:12:22.799Z,972.38
2018-09-27T20:13:22.782Z,972.38
2018-09-27T20:14:22.760Z,972.36
2018-09-27T20:15:22.747Z,972.36
2018-09-27T20:16:22.928Z,972.33
2018-09-27T20:17:22.734Z,972.34
2018-09-27T20:18:22.727Z,972.34
2018-09-27T20:19:22.706Z,972.32
2018-09-27T20:20:22.704Z,972.35
2018-09-27T20:21:22.714Z,972.32
2018-09-27T20:22:22.686Z,972.31
2018-09-27T20:23:22.694Z,972.30
2018-09-27T20:24:22.656Z,972.32
2018-09-27T20:25:22.640Z,972.29
2018-09-27T20:26:22.698Z,972.31
2018-09-27T20:27:22.624Z,972.28
2018-09-27T20:28:22.686Z,972.29
2018-09-27T20:29:22.618Z,972.25
2018-09-27T20:30:22.583Z,972.28
2018-09-27T20:31:22.582Z,972.28
2018-09-27T20:32:22.639Z,972.27
2018-09-27T20:33:22.574Z,972.27
2018-09-27T20:34:22.556Z,972.27
2018-09-27T20:35:22.549Z,972.26
2018-09-27T20:36:22.516Z,972.28
2018-09-27T20:37:22.542Z,972.29
2018-09-27T20:38:22.513Z,972.26
2018-09-27T20:39:22.483Z,972.25
2018-09-27T20:40:22.478Z,972.28
2018-09-27T20:41:22.492Z,972.21
2018-09-27T20:42:22.497Z,972.18
2018-09-27T20:43:22.454Z,972.22
2018-09-27T20:44:22.441Z,972.21
2018-09-27T20:45:22.418Z,972.14
2018-09-27T20:46:22.444Z,972.15
2018-09-27T20:47:22.447Z,972.15
2018-09-27T20:48:22.436Z,972.16
2018-09-27T20:49:22.377Z,972.20
2018-09-27T20:50:22.408Z,972.14
2018-09-27T20:51:22.385Z,972.20
2018-09-27T20:52:22.369Z,972.22
2018-09-27T20:53:22.363Z,972.17